Time;durP1;ratioP1;P1;durP2;ratioP2;P2;SDS_P1;SDS_P2;PMS_P1;PMS_P2;Temp;Humidity;BMP_temperature;BMP_pressure;BME280_temperature;BME280_humidity;BME280_pressure;Samples;Min_cycle;Max_cycle;Signal;HPM_P1;HPM_P2
2021/10/29 00:02:22;;;;;;;31.23;22.58;;;;;;;8.26;84.19;98966.50;5056094;28;20042;-61
2021/10/29 00:04:48;;;;;;;30.00;20.83;;;;;;;8.25;83.63;98967.47;5056169;28;20024;-61
2021/10/29 00:07:13;;;;;;;31.45;20.98;;;;;;;8.26;84.47;98963.09;5058671;28;20033;-61
2021/10/29 00:09:39;;;;;;;28.70;20.65;;;;;;;8.16;85.34;98952.63;5053179;28;20040;-61
2021/10/29 00:12:05;;;;;;;29.95;22.17;;;;;;;8.18;85.04;98965.47;5052022;28;20424;-62
2021/10/29 00:14:31;;;;;;;30.40;20.98;;;;;;;8.12;84.59;98953.81;5069135;28;20035;-61
2021/10/29 00:16:57;;;;;;;30.80;19.90;;;;;;;8.09;84.30;98943.69;5058479;28;20032;-61
2021/10/29 00:19:23;;;;;;;32.80;20.27;;;;;;;8.20;84.47;98961.81;5060454;28;20025;-61
2021/10/29 00:21:48;;;;;;;29.30;20.52;;;;;;;8.20;85.16;98961.81;5051037;28;20106;-61
2021/10/29 00:24:14;;;;;;;26.00;19.23;;;;;;;8.24;85.11;98959.81;5055397;28;20029;-61
2021/10/29 00:26:39;;;;;;;28.48;19.20;;;;;;;8.19;87.37;98954.97;5066996;28;20036;-61
2021/10/29 00:29:05;;;;;;;28.95;20.15;;;;;;;8.20;88.02;98958.41;5055550;28;20032;-62
2021/10/29 00:31:30;;;;;;;28.33;19.77;;;;;;;8.23;86.57;98943.44;5060909;28;20096;-61
2021/10/29 00:33:55;;;;;;;28.85;19.38;;;;;;;8.31;86.47;98949.78;5065698;28;20043;-61
2021/10/29 00:36:21;;;;;;;32.50;19.63;;;;;;;8.25;nan;98944.13;5060246;28;20060;-62
2021/10/29 00:38:46;;;;;;;29.08;19.88;;;;;;;8.33;85.82;98960.84;5061013;28;20033;-61
2021/10/29 00:41:12;;;;;;;26.08;18.48;;;;;;;8.09;87.32;98915.22;5064723;28;20447;-61
2021/10/29 00:43:37;;;;;;;24.92;17.45;;;;;;;8.28;86.54;98946.47;5058575;28;20033;-61
2021/10/29 00:46:02;;;;;;;27.52;18.23;;;;;;;8.37;86.80;98955.28;5055064;28;20021;-61
2021/10/29 00:48:28;;;;;;;23.35;16.75;;;;;;;8.41;87.98;98959.25;5051904;28;20067;-61
2021/10/29 00:50:53;;;;;;;25.17;17.33;;;;;;;8.34;87.10;98955.53;5063517;28;20029;-61
2021/10/29 00:53:20;;;;;;;25.48;17.48;;;;;;;8.41;87.97;98946.31;5053465;28;20047;-61
2021/10/29 00:55:46;;;;;;;24.73;16.55;;;;;;;8.40;88.48;98954.22;5062760;28;20035;-62
2021/10/29 00:58:11;;;;;;;24.75;15.52;;;;;;;8.35;90.87;98952.00;5057464;28;20041;-61
2021/10/29 01:00:36;;;;;;;21.48;15.05;;;;;;;8.33;89.19;98948.72;5052135;28;20111;-61
2021/10/29 01:03:02;;;;;;;23.00;15.65;;;;;;;8.42;88.88;98944.59;5059227;28;20643;-61
2021/10/29 01:05:27;;;;;;;22.63;15.77;;;;;;;8.51;89.07;98949.03;5059327;28;20032;-61
2021/10/29 01:07:54;;;;;;;20.73;14.52;;;;;;;8.55;89.32;98941.84;5058041;28;20043;-61
2021/10/29 01:10:20;;;;;;;20.70;14.50;;;;;;;8.43;89.74;98928.94;5060497;28;20024;-61
2021/10/29 01:12:45;;;;;;;22.13;15.15;;;;;;;8.43;90.16;98930.69;5053003;28;20047;-60
2021/10/29 01:15:11;;;;;;;21.02;14.65;;;;;;;8.42;90.67;98936.81;5060542;28;20017;-61
2021/10/29 01:17:37;;;;;;;20.80;13.90;;;;;;;8.49;89.77;98931.94;5038383;28;20021;-62
2021/10/29 01:20:04;;;;;;;20.48;14.95;;;;;;;8.50;90.31;98933.59;5053879;28;20028;-61
2021/10/29 01:22:29;;;;;;;20.15;14.02;;;;;;;8.13;89.65;98864.00;5028215;28;20035;-61
2021/10/29 01:24:55;;;;;;;23.35;14.57;;;;;;;8.21;91.74;98875.41;5060808;28;20115;-61
2021/10/29 01:27:21;;;;;;;23.75;14.82;;;;;;;8.59;92.42;98920.72;5061564;28;20120;-61
2021/10/29 01:29:48;;;;;;;20.70;14.55;;;;;;;8.72;92.20;98915.34;5057647;28;20040;-62
2021/10/29 01:32:15;;;;;;;21.98;14.55;;;;;;;8.78;92.02;98908.84;5056228;28;20048;-62
2021/10/29 01:34:43;;;;;;;19.02;14.35;;;;;;;8.77;92.09;98905.44;5043253;28;20785;-61
2021/10/29 01:37:11;;;;;;;20.02;13.63;;;;;;;8.78;92.43;98893.28;5069133;28;20040;-61
2021/10/29 01:39:37;;;;;;;20.92;14.63;;;;;;;8.85;91.64;98902.22;5043325;28;20151;-61
2021/10/29 01:42:03;;;;;;;21.27;13.52;;;;;;;8.84;92.13;98903.19;5073764;28;20094;-61
2021/10/29 01:44:29;;;;;;;20.20;13.95;;;;;;;8.63;92.25;98866.84;5059963;28;20029;-61
2021/10/29 01:46:55;;;;;;;21.55;14.25;;;;;;;8.70;92.47;98872.38;5075808;28;20794;-61
2021/10/29 01:49:20;;;;;;;21.33;13.68;;;;;;;8.89;91.98;98892.41;5064177;28;20419;-61
2021/10/29 01:51:46;;;;;;;20.27;14.57;;;;;;;8.90;91.76;98891.47;5066404;28;20027;-61
2021/10/29 01:54:12;;;;;;;19.67;13.60;;;;;;;8.88;91.65;98875.22;5061842;28;20123;-61
2021/10/29 01:56:38;;;;;;;21.73;14.05;;;;;;;8.96;91.59;98891.78;5054936;28;20059;-61
2021/10/29 01:59:04;;;;;;;19.42;13.90;;;;;;;8.89;91.15;98879.44;5061745;28;20038;-61
2021/10/29 02:01:29;;;;;;;20.85;14.13;;;;;;;8.57;91.72;98828.50;5061974;28;20033;-61
2021/10/29 02:03:55;;;;;;;20.25;13.38;;;;;;;8.91;91.74;98880.13;5061318;28;20031;-62
2021/10/29 02:06:20;;;;;;;20.27;13.73;;;;;;;8.92;91.85;98871.41;5061956;28;20372;-61
2021/10/29 02:08:47;;;;;;;21.95;14.43;;;;;;;8.56;91.79;98824.25;5069161;28;20109;-61
2021/10/29 02:11:13;;;;;;;18.02;13.07;;;;;;;8.75;91.68;98844.31;5056613;28;20020;-60
2021/10/29 02:13:38;;;;;;;21.05;13.80;;;;;;;8.90;91.53;98862.94;5063585;28;20592;-61
2021/10/29 02:16:04;;;;;;;18.13;13.18;;;;;;;8.89;91.61;98866.47;5068706;28;20028;-61
2021/10/29 02:18:30;;;;;;;21.60;13.43;;;;;;;8.76;92.01;98854.56;5067386;28;20035;-61
2021/10/29 02:20:56;;;;;;;21.27;13.18;;;;;;;8.85;91.62;98863.31;5069702;28;20449;-61
2021/10/29 02:23:21;;;;;;;20.45;13.32;;;;;;;8.94;90.71;98870.31;5070908;28;20021;-61
2021/10/29 02:25:47;;;;;;;18.77;12.80;;;;;;;8.69;90.21;98830.06;5072231;28;20515;-61
2021/10/29 02:28:14;;;;;;;19.33;12.85;;;;;;;8.95;90.08;98856.41;5068415;28;20031;-61
2021/10/29 02:30:40;;;;;;;18.65;12.63;;;;;;;8.92;90.29;98863.63;5075821;28;20042;-61
2021/10/29 02:33:06;;;;;;;16.02;11.75;;;;;;;8.92;90.20;98856.66;5055877;28;20188;-61
2021/10/29 02:35:31;;;;;;;19.27;12.30;;;;;;;8.69;90.18;98819.72;5064309;28;20034;-61
2021/10/29 02:37:57;;;;;;;18.40;12.45;;;;;;;8.83;89.70;98854.84;5064185;28;20027;-61
2021/10/29 02:40:22;;;;;;;17.42;11.63;;;;;;;8.89;90.18;98848.31;5064886;28;20116;-61
2021/10/29 02:42:47;;;;;;;19.27;11.63;;;;;;;8.49;89.56;98784.22;5062024;28;20024;-61
2021/10/29 02:45:13;;;;;;;16.88;11.75;;;;;;;8.96;89.31;98844.25;5057644;28;20048;-61
2021/10/29 02:47:38;;;;;;;17.67;12.07;;;;;;;8.55;89.79;98797.50;5061402;28;20078;-61
2021/10/29 02:50:04;;;;;;;19.13;11.77;;;;;;;8.85;89.87;98843.41;5061165;28;20502;-60
2021/10/29 02:52:29;;;;;;;17.42;11.65;;;;;;;8.50;90.09;98797.06;5062259;28;20033;-61
2021/10/29 02:54:55;;;;;;;16.88;11.70;;;;;;;8.52;89.75;98792.56;5077858;28;20028;-61
2021/10/29 02:57:20;;;;;;;16.98;11.32;;;;;;;8.80;90.24;98832.59;5059512;28;20032;-61
2021/10/29 02:59:46;;;;;;;18.70;11.68;;;;;;;8.83;89.96;98832.34;5052199;28;20029;-60
2021/10/29 03:02:12;;;;;;;17.00;10.98;;;;;;;8.77;89.78;98824.25;5074867;28;20534;-61
2021/10/29 03:04:37;;;;;;;17.77;11.73;;;;;;;8.88;89.95;98842.31;5075025;28;20024;-61
2021/10/29 03:07:03;;;;;;;16.65;10.88;;;;;;;8.81;89.89;98825.63;5049848;28;20039;-61
2021/10/29 03:09:28;;;;;;;19.75;12.68;;;;;;;8.90;89.62;98830.03;5059946;28;20055;-61
2021/10/29 03:11:54;;;;;;;16.75;11.63;;;;;;;8.84;89.92;98828.78;5057351;28;20036;-61
2021/10/29 03:14:19;;;;;;;16.83;11.60;;;;;;;8.88;90.19;98821.56;5061932;28;20040;-60
2021/10/29 03:16:45;;;;;;;17.30;11.13;;;;;;;8.69;89.82;98798.13;5062414;28;20036;-61
2021/10/29 03:19:11;;;;;;;18.55;11.18;;;;;;;8.92;89.50;98812.59;5075025;28;20123;-61
2021/10/29 03:21:37;;;;;;;17.70;11.93;;;;;;;8.68;90.36;98792.13;5069471;28;20068;-61
2021/10/29 03:24:02;;;;;;;17.17;11.70;;;;;;;8.92;89.46;98825.53;5059471;28;20131;-61
2021/10/29 03:26:27;;;;;;;16.80;11.05;;;;;;;8.86;89.86;98828.66;5057605;28;20147;-61
2021/10/29 03:28:53;;;;;;;17.52;11.15;;;;;;;8.83;89.50;98826.31;5059580;28;20782;-62
2021/10/29 03:31:18;;;;;;;17.00;11.63;;;;;;;8.90;88.59;98824.03;5065011;28;20032;-61
2021/10/29 03:33:44;;;;;;;16.95;11.02;;;;;;;8.63;89.00;98776.97;5063081;28;20368;-61
2021/10/29 03:36:10;;;;;;;14.27;10.20;;;;;;;8.35;89.13;98736.13;5058716;28;20032;-61
2021/10/29 03:41:09;;;;;;;16.88;10.63;;;;;;;8.94;88.31;98809.88;5057884;28;20484;-61
2021/10/29 03:43:42;;;;;;;17.45;10.93;;;;;;;8.96;88.75;98826.97;5053175;28;20028;-61
2021/10/29 03:46:16;;;;;;;15.95;10.95;;;;;;;8.91;88.35;98823.06;5073642;28;20373;-61
2021/10/29 03:49:08;;;;;;;17.52;10.75;;;;;;;8.78;88.26;98807.72;5065139;28;20127;-61
2021/10/29 03:56:26;;;;;;;14.80;10.60;;;;;;;8.78;89.74;98818.09;5055688;28;20036;-61
2021/10/29 03:58:54;;;;;;;17.45;10.48;;;;;;;8.78;89.41;98818.09;5068694;28;20312;-61
2021/10/29 04:01:20;;;;;;;15.77;10.90;;;;;;;8.72;89.43;98813.44;5056765;28;20066;-61
2021/10/29 04:03:47;;;;;;;17.65;10.65;;;;;;;8.53;89.30;98776.09;5070522;28;20028;-61
2021/10/29 04:06:13;;;;;;;16.98;11.05;;;;;;;8.51;89.65;98772.81;5049078;28;20101;-61
2021/10/29 04:08:38;;;;;;;17.48;10.65;;;;;;;8.83;89.18;98821.13;5060796;28;20485;-61
2021/10/29 04:11:04;;;;;;;15.60;10.45;;;;;;;8.68;89.49;98815.47;5057867;28;20025;-61
2021/10/29 04:13:34;;;;;;;16.67;11.23;;;;;;;8.77;89.71;98829.44;5067355;28;20033;-61
2021/10/29 04:16:04;;;;;;;21.27;11.25;;;;;;;8.73;89.82;98820.28;5061898;28;20032;-61
2021/10/29 04:18:33;;;;;;;15.00;10.70;;;;;;;8.75;89.87;98823.56;5056215;28;20032;-61
2021/10/29 04:20:58;;;;;;;14.40;9.52;;;;;;;8.41;89.51;98769.28;5059392;28;20107;-61
2021/10/29 04:23:23;;;;;;;16.13;10.93;;;;;;;8.68;89.59;98825.03;5066734;28;20630;-61
2021/10/29 04:25:49;;;;;;;16.73;10.82;;;;;;;8.62;90.39;98831.53;5050427;28;20035;-61
2021/10/29 04:28:15;;;;;;;16.42;10.32;;;;;;;8.64;90.12;98829.63;5057404;28;20497;-61
2021/10/29 04:30:43;;;;;;;15.18;9.80;;;;;;;8.66;90.08;98832.91;5056754;28;20542;-62
2021/10/29 04:33:08;;;;;;;17.40;10.90;;;;;;;8.38;89.11;98785.94;5070367;28;20050;-61
2021/10/29 04:35:35;;;;;;;14.07;10.27;;;;;;;8.66;89.83;98838.91;5064311;28;20031;-60
2021/10/29 04:38:02;;;;;;;16.23;9.52;;;;;;;8.56;89.86;98816.47;5059503;28;20047;-60
2021/10/29 04:40:27;;;;;;;16.30;10.10;;;;;;;8.66;90.12;98836.31;5063132;28;20103;-61
2021/10/29 04:42:53;;;;;;;14.43;9.32;;;;;;;8.70;88.90;98831.72;5064672;28;20139;-61
2021/10/29 04:45:18;;;;;;;17.00;9.45;;;;;;;8.44;89.35;98789.81;5067958;28;20029;-61
2021/10/29 04:47:43;;;;;;;12.80;8.68;;;;;;;8.65;89.38;98832.09;5064517;28;20028;-61
2021/10/29 04:50:09;;;;;;;14.43;8.68;;;;;;;8.60;88.62;98820.47;5042421;28;20550;-62
2021/10/29 04:52:35;;;;;;;13.80;8.98;;;;;;;8.48;88.24;98793.78;5055983;28;20562;-61
2021/10/29 04:55:01;;;;;;;13.30;8.90;;;;;;;8.60;88.60;98817.88;5060424;28;20020;-61
2021/10/29 04:57:26;;;;;;;15.70;9.05;;;;;;;8.63;87.72;98815.00;5045952;28;20586;-62
2021/10/29 04:59:52;;;;;;;14.05;9.07;;;;;;;8.61;88.13;98815.13;5045841;28;22187;-61
2021/10/29 05:02:17;;;;;;;13.30;8.77;;;;;;;8.62;88.34;98811.59;5059360;28;20040;-61
2021/10/29 05:04:43;;;;;;;15.93;9.07;;;;;;;8.59;87.87;98814.44;5054462;28;20040;-61
2021/10/29 05:07:08;;;;;;;15.77;9.48;;;;;;;8.50;87.83;98798.84;5065561;28;20835;-62
2021/10/29 05:09:34;;;;;;;14.32;8.52;;;;;;;8.57;87.87;98810.34;5054760;28;20128;-61
2021/10/29 05:12:00;;;;;;;14.10;8.45;;;;;;;8.65;87.35;98805.34;5073665;28;20051;-61
2021/10/29 05:14:25;;;;;;;13.27;8.40;;;;;;;8.58;87.55;98804.19;5057705;28;20086;-61
2021/10/29 05:16:51;;;;;;;12.68;8.35;;;;;;;8.51;87.64;98795.31;5061442;28;20372;-61
2021/10/29 05:19:17;;;;;;;13.73;8.30;;;;;;;8.54;87.56;98802.81;5031207;28;20082;-61
2021/10/29 05:21:43;;;;;;;15.07;8.48;;;;;;;8.48;87.61;98795.56;5064823;28;20029;-62
2021/10/29 05:24:08;;;;;;;14.18;8.63;;;;;;;8.57;87.04;98807.75;5071345;28;20075;-61
2021/10/29 05:26:34;;;;;;;14.02;8.95;;;;;;;8.46;87.33;98812.03;5068393;28;20104;-62
2021/10/29 05:28:59;;;;;;;14.13;8.05;;;;;;;8.55;86.73;98791.50;5054459;28;20714;-61
2021/10/29 05:31:24;;;;;;;14.38;8.25;;;;;;;8.52;87.46;98802.13;5060392;28;20079;-61
2021/10/29 05:33:50;;;;;;;12.65;8.98;;;;;;;8.22;87.28;98757.84;5061674;28;20036;-61
2021/10/29 05:36:15;;;;;;;16.15;8.63;;;;;;;8.52;87.88;98809.91;5043742;28;20040;-60
2021/10/29 05:38:41;;;;;;;13.48;8.48;;;;;;;8.19;88.04;98757.28;5053273;28;20455;-62
2021/10/29 05:41:06;;;;;;;13.90;8.25;;;;;;;8.47;87.65;98810.28;5049987;28;20087;-61
2021/10/29 05:43:32;;;;;;;14.70;8.88;;;;;;;8.28;87.98;98777.25;5058897;28;20467;-61
2021/10/29 05:45:57;;;;;;;15.48;8.35;;;;;;;8.46;88.19;98809.47;5073425;28;20051;-61
2021/10/29 05:48:23;;;;;;;14.57;9.00;;;;;;;8.52;88.74;98802.13;5040025;28;20128;-60
2021/10/29 05:50:50;;;;;;;13.60;7.80;;;;;;;8.46;88.27;98798.28;5063632;28;20025;-60
2021/10/29 05:55:54;;;;;;;13.18;8.18;;;;;;;8.51;88.49;98805.69;5053950;28;20024;-60
2021/10/29 05:58:20;;;;;;;13.73;8.20;;;;;;;8.50;88.47;98815.22;5078185;28;20134;-60
2021/10/29 06:00:45;;;;;;;12.30;8.60;;;;;;;8.20;88.47;98759.75;5059075;28;20020;-60
2021/10/29 06:03:10;;;;;;;13.82;8.68;;;;;;;8.55;88.69;98820.03;5051210;28;20048;-60
2021/10/29 06:05:36;;;;;;;14.73;8.75;;;;;;;8.52;87.83;98808.13;5061328;28;20028;-60
2021/10/29 06:08:02;;;;;;;12.40;8.43;;;;;;;8.53;87.95;98814.97;5053264;28;20467;-60
2021/10/29 06:10:28;;;;;;;12.60;8.27;;;;;;;8.48;88.00;98804.16;5057895;28;20224;-60
2021/10/29 06:12:53;;;;;;;13.00;7.75;;;;;;;8.57;88.11;98818.13;5064557;28;20033;-60
2021/10/29 06:15:19;;;;;;;13.57;8.05;;;;;;;8.33;87.27;98782.06;5055148;28;20029;-60
2021/10/29 06:17:45;;;;;;;14.32;7.50;;;;;;;8.17;87.11;98766.97;5060988;28;20128;-60
2021/10/29 06:20:12;;;;;;;12.00;7.80;;;;;;;8.49;87.08;98823.09;5047877;28;20028;-60
2021/10/29 06:25:14;;;;;;;11.80;8.15;;;;;;;8.43;87.36;98814.91;5060251;28;20036;-60
2021/10/29 06:30:24;;;;;;;12.90;7.70;;;;;;;8.48;88.63;98832.66;5065907;28;20035;-60
2021/10/29 06:32:50;;;;;;;14.20;8.35;;;;;;;8.48;88.21;98832.66;5062153;28;20029;-60
2021/10/29 06:35:15;;;;;;;14.02;7.82;;;;;;;8.61;87.79;98832.47;5063320;28;20032;-60
2021/10/29 06:37:41;;;;;;;13.20;7.88;;;;;;;8.22;88.54;98778.59;5063862;28;20033;-60
2021/10/29 06:40:10;;;;;;;14.30;8.55;;;;;;;8.44;88.96;98832.09;5066633;28;20025;-60
2021/10/29 06:42:36;;;;;;;11.98;7.93;;;;;;;8.45;88.63;98832.91;5068413;28;20024;-59
2021/10/29 06:47:40;;;;;;;11.75;7.50;;;;;;;8.29;88.42;98799.63;5058230;28;20123;-60
2021/10/29 07:00:31;;;;;;;11.48;7.32;;;;;;;8.49;87.46;98833.47;5051512;28;20143;-59
2021/10/29 07:41:13;;;;;;;13.43;8.80;;;;;;;8.37;85.93;98810.19;5073357;28;20083;-61
2021/10/29 07:43:46;;;;;;;17.25;10.65;;;;;;;8.65;85.92;98862.38;5065572;28;20024;-60
2021/10/29 07:46:12;;;;;;;13.20;8.25;;;;;;;8.64;85.44;98861.56;5066215;28;20472;-61
2021/10/29 07:48:37;;;;;;;12.65;7.60;;;;;;;8.64;85.37;98856.38;5069650;28;20043;-60
2021/10/29 07:51:04;;;;;;;11.27;7.13;;;;;;;8.66;84.84;98861.44;5062438;28;20029;-60
2021/10/29 07:53:30;;;;;;;11.70;7.30;;;;;;;8.58;84.14;98838.75;5070099;28;20036;-60
2021/10/29 07:56:01;;;;;;;10.82;6.88;;;;;;;8.48;83.67;98808.53;5062046;28;20128;-61
2021/10/29 07:58:26;;;;;;;10.95;7.20;;;;;;;8.68;84.20;98849.16;5055969;28;20037;-61
2021/10/29 08:00:52;;;;;;;11.98;7.07;;;;;;;8.48;84.06;98803.34;5063232;28;21190;-60
2021/10/29 08:03:17;;;;;;;14.88;7.47;;;;;;;8.79;83.75;98856.88;5051920;28;20029;-60
2021/10/29 08:05:46;;;;;;;11.63;6.90;;;;;;;8.82;83.30;98845.44;5068932;28;20027;-61
2021/10/29 08:08:14;;;;;;;10.95;6.82;;;;;;;8.84;83.74;98856.50;5051201;28;20044;-61
2021/10/29 08:10:40;;;;;;;10.70;7.00;;;;;;;8.83;83.32;98854.84;5062925;28;20024;-61
2021/10/29 08:13:05;;;;;;;11.25;6.78;;;;;;;8.84;83.38;98854.72;5056000;28;20035;-61
2021/10/29 08:15:34;;;;;;;11.82;7.53;;;;;;;8.80;83.28;98853.34;5062237;28;20474;-60
2021/10/29 08:18:00;;;;;;;11.05;6.88;;;;;;;8.80;83.07;98849.94;5049427;28;20040;-60
2021/10/29 08:20:25;;;;;;;11.82;7.45;;;;;;;8.46;83.57;98804.28;5070361;28;20032;-60
2021/10/29 08:22:51;;;;;;;10.40;7.03;;;;;;;8.81;83.48;98856.75;5056523;28;20020;-61
2021/10/29 08:25:17;;;;;;;10.50;6.00;;;;;;;8.81;82.94;98851.56;5050942;28;20070;-60
2021/10/29 08:27:42;;;;;;;14.15;6.55;;;;;;;8.53;83.25;98803.78;5067951;28;20075;-61
2021/10/29 08:30:09;;;;;;;12.07;6.88;;;;;;;8.84;82.96;98853.91;5060346;28;20050;-61
2021/10/29 08:32:42;;;;;;;9.65;6.22;;;;;;;8.99;82.60;98854.38;5062329;28;20048;-60
2021/10/29 08:35:08;;;;;;;10.93;6.95;;;;;;;8.61;82.94;98809.94;5063588;28;20470;-60
2021/10/29 08:37:35;;;;;;;12.68;8.25;;;;;;;8.63;82.77;98812.41;5035106;28;20020;-61
2021/10/29 08:40:01;;;;;;;12.63;6.97;;;;;;;8.85;83.28;98840.81;5066253;28;20029;-60
2021/10/29 08:42:27;;;;;;;12.70;7.43;;;;;;;8.96;82.73;98852.88;5066339;28;20396;-61
2021/10/29 08:44:54;;;;;;;12.05;7.28;;;;;;;8.98;83.38;98850.16;5062597;28;20035;-60
2021/10/29 08:47:22;;;;;;;10.75;6.72;;;;;;;9.01;82.25;98852.50;5057225;28;20063;-61
2021/10/29 08:49:48;;;;;;;11.73;6.72;;;;;;;8.78;82.76;98815.50;5062340;28;20096;-61
2021/10/29 08:52:20;;;;;;;10.15;6.95;;;;;;;9.11;81.67;98840.41;5054309;28;20025;-61
2021/10/29 08:54:46;;;;;;;10.93;7.13;;;;;;;9.05;81.86;98835.72;5071745;28;20091;-61
2021/10/29 08:57:12;;;;;;;12.85;6.93;;;;;;;8.81;81.69;98792.72;5064647;28;20731;-61
2021/10/29 08:59:39;;;;;;;13.65;7.00;;;;;;;9.14;81.97;98836.72;5063542;28;20020;-60
2021/10/29 09:32:23;;;;;;;11.15;6.63;;;;;;;9.76;77.61;98834.84;5065943;28;20522;-61
2021/10/29 09:35:07;;;;;;;10.77;6.15;;;;;;;9.84;77.48;98834.19;5059831;28;20024;-61
2021/10/29 09:37:37;;;;;;;10.77;6.30;;;;;;;9.92;76.21;98829.16;5054558;28;20582;-60
2021/10/29 09:40:13;;;;;;;11.45;6.38;;;;;;;9.94;75.12;98833.25;5055919;28;20112;-61
2021/10/29 09:42:40;;;;;;;11.02;6.70;;;;;;;10.01;77.65;98833.53;5047403;28;20061;-61
2021/10/29 09:45:14;;;;;;;9.68;5.93;;;;;;;10.12;74.71;98829.97;5071444;28;20493;-61
2021/10/29 09:47:46;;;;;;;9.40;6.03;;;;;;;10.17;74.34;98820.81;5060996;28;20032;-62
2021/10/29 09:50:22;;;;;;;11.10;6.28;;;;;;;10.22;74.51;98822.97;5065825;28;20706;-61
2021/10/29 09:53:02;;;;;;;9.23;5.57;;;;;;;10.27;72.29;98818.19;5054491;28;20032;-61
2021/10/29 09:55:48;;;;;;;9.88;5.85;;;;;;;10.27;72.62;98802.59;5053723;28;20024;-61
2021/10/29 09:58:15;;;;;;;10.00;5.93;;;;;;;10.41;73.00;98816.19;5060646;28;21323;-61
2021/10/29 10:00:41;;;;;;;11.55;5.55;;;;;;;10.30;71.75;98794.53;5064797;28;20115;-61
2021/10/29 10:03:08;;;;;;;9.48;5.60;;;;;;;10.47;72.24;98818.22;5046476;28;20081;-61
2021/10/29 10:05:33;;;;;;;10.48;5.88;;;;;;;10.51;72.91;98803.97;5054875;28;20017;-60
2021/10/29 10:08:00;;;;;;;9.55;6.40;;;;;;;10.59;72.54;98793.72;5054079;28;20522;-61
2021/10/29 10:10:26;;;;;;;11.15;6.25;;;;;;;10.67;72.06;98801.63;5049222;28;20031;-60
2021/10/29 10:12:52;;;;;;;15.27;8.63;;;;;;;10.57;71.92;98767.03;5065459;28;20659;-61
2021/10/29 10:15:19;;;;;;;11.23;6.80;;;;;;;10.61;70.58;98759.78;5060801;28;20135;-60
2021/10/29 10:17:45;;;;;;;11.73;5.72;;;;;;;10.92;70.89;98796.78;5062786;28;20027;-60
2021/10/29 10:20:11;;;;;;;10.73;6.07;;;;;;;10.95;68.83;98797.31;5065826;28;20031;-61
2021/10/29 10:22:42;;;;;;;10.82;6.28;;;;;;;11.04;72.09;98800.00;5067519;28;20016;-61
2021/10/29 10:25:15;;;;;;;11.48;6.38;;;;;;;11.07;73.71;98797.94;5061640;28;20643;-61
2021/10/29 10:46:52;;;;;;;12.20;5.57;;;;;;;11.44;70.47;98762.41;5056618;28;20024;-61
2021/10/29 10:49:19;;;;;;;10.75;6.00;;;;;;;11.45;70.13;98757.06;5058136;28;20108;-63
2021/10/29 10:51:54;;;;;;;9.60;6.38;;;;;;;11.24;70.77;98712.25;5045625;28;20157;-61
2021/10/29 11:11:04;;;;;;;11.77;6.32;;;;;;;11.88;68.91;98697.38;5071223;28;20032;-60
2021/10/29 11:13:45;;;;;;;10.40;6.10;;;;;;;12.26;69.11;98739.72;5061237;28;21889;-61
2021/10/29 11:16:14;;;;;;;9.30;5.85;;;;;;;12.19;69.84;98736.09;5060002;28;20147;-61
2021/10/29 11:19:06;;;;;;;8.10;5.53;;;;;;;12.23;69.32;98720.00;5062173;28;20035;-62
2021/10/29 11:21:38;;;;;;;10.50;6.38;;;;;;;12.11;69.80;98722.03;5062615;28;20032;-62
2021/10/29 11:24:09;;;;;;;11.15;6.55;;;;;;;11.91;69.24;98686.69;5060630;28;20064;-61
2021/10/29 11:26:40;;;;;;;12.45;6.25;;;;;;;11.95;68.47;98676.78;5049262;28;20032;-61
2021/10/29 11:29:07;;;;;;;10.70;6.70;;;;;;;12.01;69.14;98681.38;5060350;28;20024;-61
2021/10/29 11:31:43;;;;;;;12.27;6.75;;;;;;;12.11;66.34;98661.25;5058885;28;20541;-59
2021/10/29 11:34:13;;;;;;;9.73;5.90;;;;;;;12.23;66.25;98678.28;5067844;28;20480;-59
2021/10/29 11:36:49;;;;;;;9.32;6.40;;;;;;;12.46;64.46;98706.44;5051671;28;20108;-59
2021/10/29 11:39:15;;;;;;;11.18;6.78;;;;;;;12.49;66.30;98695.72;5062476;28;20441;-60
2021/10/29 11:41:44;;;;;;;13.48;7.57;;;;;;;12.61;64.60;98699.69;5057740;28;20582;-60
2021/10/29 11:44:17;;;;;;;11.98;7.00;;;;;;;12.47;66.16;98661.97;5051459;28;20066;-60
2021/10/29 11:46:45;;;;;;;13.45;6.70;;;;;;;12.63;67.70;98686.47;5046726;28;20132;-60
2021/10/29 11:49:30;;;;;;;11.15;6.95;;;;;;;12.74;65.90;98681.00;5076069;28;20020;-58
2021/10/29 11:51:57;;;;;;;12.32;7.40;;;;;;;12.87;66.10;98675.34;5049551;28;20124;-59
2021/10/29 11:54:27;;;;;;;15.65;7.20;;;;;;;12.82;67.52;98656.72;5038330;28;20028;-59
2021/10/29 11:57:09;;;;;;;12.73;7.38;;;;;;;12.94;68.31;98673.75;5057800;28;20039;-59
2021/10/29 12:07:27;;;;;;;15.23;9.90;;;;;;;13.51;62.34;98649.56;5060865;28;20101;-60
2021/10/29 12:09:54;;;;;;;17.02;10.77;;;;;;;13.74;61.99;98649.72;5063877;28;20028;-61
2021/10/29 12:12:23;;;;;;;15.48;9.90;;;;;;;13.73;61.28;98642.88;5060137;28;20052;-61
2021/10/29 12:14:50;;;;;;;15.93;9.40;;;;;;;13.78;60.96;98650.19;5058215;28;20035;-60
2021/10/29 12:17:44;;;;;;;14.98;9.60;;;;;;;13.88;60.50;98636.97;5067173;28;20475;-59
2021/10/29 12:20:15;;;;;;;16.23;10.00;;;;;;;14.00;60.33;98640.88;5056433;28;20120;-60
2021/10/29 12:22:52;;;;;;;15.13;9.30;;;;;;;14.08;60.18;98637.44;5058305;28;20028;-60
2021/10/29 12:28:05;;;;;;;19.33;10.90;;;;;;;14.17;59.15;98634.63;5067391;28;20051;-59
2021/10/29 13:04:13;;;;;;;21.15;14.43;;;;;;;14.45;59.05;98565.41;5054579;28;20137;-60
2021/10/29 13:06:53;;;;;;;22.55;14.60;;;;;;;14.79;58.67;98614.81;5056277;28;20025;-60
2021/10/29 13:09:27;;;;;;;26.85;15.70;;;;;;;14.79;59.36;98609.59;5040784;28;20145;-60
2021/10/29 13:11:56;;;;;;;24.50;14.95;;;;;;;14.64;58.46;98588.56;5051889;28;20082;-60
2021/10/29 13:14:48;;;;;;;22.33;15.07;;;;;;;14.59;57.75;98581.22;5061577;28;20111;-59
2021/10/29 13:17:17;;;;;;;21.20;13.95;;;;;;;14.79;57.63;98599.94;5060479;28;20044;-60
2021/10/29 13:20:05;;;;;;;22.17;15.35;;;;;;;14.52;58.61;98558.50;5058159;28;20493;-61
2021/10/29 13:55:14;;;;;;;30.13;19.65;;;;;;;14.54;60.74;98570.41;5051378;28;20200;-61
2021/10/29 14:30:16;;;;;;;29.42;19.45;;;;;;;14.57;59.41;98583.19;5056047;28;20043;-61
2021/10/29 14:34:55;;;;;;;31.02;19.10;;;;;;;14.43;59.05;98549.88;5055060;28;20371;-60
2021/10/29 14:39:57;;;;;;;27.33;18.92;;;;;;;14.63;59.00;98581.69;5056088;28;21342;-60
2021/10/29 14:42:35;;;;;;;28.98;19.10;;;;;;;14.58;59.56;98582.22;5049593;28;20039;-60
2021/10/29 14:51:08;;;;;;;28.42;18.48;;;;;;;14.49;58.76;98583.19;5051021;28;20043;-60
2021/10/29 15:43:54;;;;;;;28.45;19.73;;;;;;;13.88;65.63;98585.50;5057185;28;20040;-59
2021/10/29 15:48:51;;;;;;;30.52;20.73;;;;;;;13.78;66.31;98585.72;5064262;28;20082;-60
2021/10/29 15:51:17;;;;;;;30.55;21.33;;;;;;;13.83;66.35;98590.41;5061736;28;20069;-60
2021/10/29 15:53:44;;;;;;;29.20;20.48;;;;;;;13.79;65.98;98586.50;5062045;28;20040;-60
2021/10/29 15:58:51;;;;;;;33.20;21.83;;;;;;;13.51;65.07;98552.91;5061460;28;20116;-59
2021/10/29 16:01:29;;;;;;;34.53;24.05;;;;;;;13.77;65.33;98591.91;5052787;28;20123;-60
2021/10/29 16:16:59;;;;;;;42.50;30.85;;;;;;;13.65;65.89;98581.00;5051286;28;20026;-59
2021/10/29 16:17:41;;;;;;;45.20;31.08;;;;;;;13.64;65.61;98612.50;5051144;28;20534;-60
2021/10/29 16:20:07;;;;;;;43.75;31.55;;;;;;;13.50;66.12;98593.06;5054678;28;20104;-58
2021/10/29 16:22:35;;;;;;;44.38;30.17;;;;;;;13.60;65.58;98603.38;5049523;28;20226;-58
2021/10/29 16:25:08;;;;;;;41.67;29.17;;;;;;;13.62;65.78;98604.00;5049945;28;20025;-59
2021/10/29 16:27:40;;;;;;;39.55;26.75;;;;;;;13.43;67.12;98613.81;5046151;28;20029;-58
2021/10/29 16:30:06;;;;;;;38.50;28.17;;;;;;;13.36;67.66;98619.81;5051876;28;20009;-58
2021/10/29 16:35:16;;;;;;;30.33;21.45;;;;;;;13.12;69.27;98612.75;5050170;28;20078;-59
2021/10/29 16:37:42;;;;;;;29.95;21.08;;;;;;;13.07;70.22;98616.66;5064686;28;20482;-59
2021/10/29 16:40:08;;;;;;;33.55;22.50;;;;;;;12.91;70.48;98600.97;5037697;28;20039;-59
2021/10/29 16:42:33;;;;;;;33.75;22.50;;;;;;;12.91;71.10;98610.59;5035398;28;20078;-59
2021/10/29 16:44:59;;;;;;;32.92;22.50;;;;;;;12.88;71.48;98615.16;5049358;28;20020;-60
2021/10/29 16:47:27;;;;;;;36.05;23.17;;;;;;;12.88;71.44;98609.94;5057900;28;20033;-59
2021/10/29 16:49:53;;;;;;;31.55;22.73;;;;;;;12.81;71.64;98614.19;5055766;28;20065;-58
2021/10/29 16:52:18;;;;;;;34.05;22.35;;;;;;;12.81;71.25;98614.19;5041128;28;20462;-58